Murry, Missouri
Current Conditions -  °F | °C
As of 10:25 PM on Sunday 25 Jan 2015 (Local Time) from KCOU Reporting Station
Overcast Overcast  
Wind Chill: 22°   Ceiling: 1300
Heat Index: 31°   Visibility: 10mi
Dew Point: 28°   Wind: 12mph
Humidity: 89%   Direction: 340°NNW
Pressure: 30.05"   Gusts: NA
Location:  39.0235°N, 92.2896°W
Report Text: KCOU 260425Z AUTO 34010KT 10SM OVC013 M01/M02 A3005 RMK AO2 T10061022
Loading
Personal Weather Stations






























Interactive Weather Map New forecast layout! Learn more

10-Day Weather Forecast

Advertisements
Track Severe Weather on mobile